Star, North Carolina
Current Conditions -  °F | °C
As of 11:55 PM on Saturday 22 Nov 2014 (Local Time) from KHBI Reporting Station
Broken Clouds Broken Clouds  
Wind Chill: 35°   Ceiling: 4600
Heat Index: 35°   Visibility: 10mi
Dew Point: 26°   Wind: 0mph
Humidity: 70%   Direction: NA
Pressure: 30.34"   Gusts: NA
Location:  35.4°N, 79.78°W
Report Text: KHBI 230455Z AUTO 00000KT 10SM BKN046 02/M03 A3034 RMK AO2 T00161034
Loading
Personal Weather Stations






























Interactive Weather Map New forecast layout! Learn more

10-Day Weather Forecast

Advertisements
Track Severe Weather on mobile